Terminal Aerodrome Forecast
Issued by NWS

Home | Current Version | Previous Version | Text Only | Print | Product List | Glossary On
Versions: 1 2 3 4 5 6 7 8 9 10 11 12 13
000
FTUS46 KPDT 261120
TAFBDN
TAF
KBDN 261120Z 2612/2712 18005KT P6SM SCT120
     FM262000 30008G15KT P6SM VCTS SCT050CB BKN080
     FM270000 32008G15KT P6SM FEW060 SCT090
     FM270600 32005KT P6SM FEW090 SCT130=

USA.gov is the U.S. government's official web portal to all federal, state and local government web resources and services.